Apple Valley, Minnesota
Current Conditions -  °F | °C
As of 10:28 AM on Tuesday 21 Oct 2014 (Local Time) from KLVN Reporting Station
Clear Clear  
Wind Chill: 41°   Ceiling: Unl
Heat Index: 46°   Visibility: 10mi
Dew Point: 41°   Wind: 13mph
Humidity: 81%   Direction: 100°E
Pressure: 30.2"   Gusts: NA
Location:  44.74°N, 93.22°W
Report Text: KLVN 211528Z AUTO 10011KT 10SM CLR 08/05 A3020 RMK AO2
Loading
Personal Weather Stations






























Interactive Weather Map New forecast layout! Learn more

10-Day Weather Forecast

Advertisements
Track Severe Weather on mobile